Time;durP1;ratioP1;P1;durP2;ratioP2;P2;SDS_P1;SDS_P2;PMS_P1;PMS_P2;Temp;Humidity;BMP_temperature;BMP_pressure;BME280_temperature;BME280_humidity;BME280_pressure;Samples;Min_cycle;Max_cycle;Signal;HPM_P1;HPM_P2
2023/04/17 00:00:37;;;;;;;6.20;2.30;;;;;;;3.94;100.00;101216.75;105510;1260;60851;-54
2023/04/17 00:03:06;;;;;;;4.30;1.80;;;;;;;3.94;100.00;101220.60;105547;1256;75907;-56
2023/04/17 00:05:34;;;;;;;3.60;1.90;;;;;;;3.88;100.00;101219.95;105177;1261;67370;-55
2023/04/17 00:08:03;;;;;;;4.80;2.20;;;;;;;3.81;100.00;101217.08;105457;1260;72944;-55
2023/04/17 00:10:31;;;;;;;4.90;1.90;;;;;;;3.74;100.00;101220.36;105458;1258;60550;-56
2023/04/17 00:13:02;;;;;;;6.00;2.30;;;;;;;3.70;100.00;101221.21;105882;1261;60143;-58
2023/04/17 00:15:31;;;;;;;4.50;1.80;;;;;;;3.64;100.00;101225.22;105286;1256;75324;-54
2023/04/17 00:18:01;;;;;;;6.80;2.10;;;;;;;3.59;100.00;101228.33;105543;1260;67344;-55
2023/04/17 00:20:31;;;;;;;4.40;2.00;;;;;;;3.55;100.00;101226.54;105391;1257;74113;-54
2023/04/17 00:23:00;;;;;;;4.40;1.70;;;;;;;3.52;100.00;101229.17;105849;1259;62070;-57
2023/04/17 00:25:29;;;;;;;4.50;1.90;;;;;;;3.55;100.00;101230.36;105521;1260;60709;-54
2023/04/17 00:27:58;;;;;;;5.30;1.90;;;;;;;3.56;100.00;101228.59;105740;1258;75291;-55
2023/04/17 00:30:26;;;;;;;4.80;2.30;;;;;;;3.55;100.00;101224.52;105644;1260;68605;-54
2023/04/17 00:32:56;;;;;;;4.30;2.10;;;;;;;3.54;100.00;101225.99;105250;1259;380199;-55
2023/04/17 00:35:25;;;;;;;5.60;2.10;;;;;;;3.50;100.00;101225.02;105659;1256;60579;-56
2023/04/17 00:37:53;;;;;;;4.40;2.00;;;;;;;3.48;100.00;101229.86;105408;1257;61754;-56
2023/04/17 00:40:22;;;;;;;4.30;2.30;;;;;;;3.46;100.00;101226.23;105478;1259;75344;-55
2023/04/17 00:42:54;;;;;;;5.20;2.10;;;;;;;3.46;100.00;101222.30;105428;1257;67645;-57
2023/04/17 00:45:23;;;;;;;4.00;1.90;;;;;;;3.46;100.00;101222.41;105417;1257;74164;-55
2023/04/17 00:47:51;;;;;;;6.50;2.50;;;;;;;3.43;100.00;101219.73;105523;1258;60924;-56
2023/04/17 00:50:20;;;;;;;4.20;2.80;;;;;;;3.39;100.00;101217.96;105424;1260;60944;-54
2023/04/17 00:52:49;;;;;;;5.20;2.20;;;;;;;3.35;100.00;101220.62;105345;1256;74507;-53
2023/04/17 00:55:18;;;;;;;8.50;2.80;;;;;;;3.35;100.00;101221.19;105339;1256;68251;-54
2023/04/17 00:57:49;;;;;;;6.00;2.80;;;;;;;3.33;100.00;101217.73;105387;1260;74215;-53
2023/04/17 01:00:18;;;;;;;;;;;;;;;3.27;100.00;101217.80;105716;1260;61079;-57
2023/04/17 01:02:47;;;;;;;5.60;2.70;;;;;;;3.22;100.00;101212.89;105679;1261;60439;-54
2023/04/17 01:05:16;;;;;;;5.60;2.70;;;;;;;3.20;100.00;101210.98;105215;1256;75976;-56
2023/04/17 01:07:44;;;;;;;5.90;2.90;;;;;;;3.15;100.00;101211.14;105434;1260;69115;-55
2023/04/17 01:10:13;;;;;;;6.50;2.90;;;;;;;3.11;100.00;101207.66;105413;1256;74444;-56
2023/04/17 01:12:45;;;;;;;4.80;2.70;;;;;;;3.07;100.00;101210.34;105150;1256;61144;-56
2023/04/17 01:15:14;;;;;;;4.90;2.20;;;;;;;3.00;100.00;101205.69;105297;1262;60573;-54
2023/04/17 01:17:42;;;;;;;6.30;2.50;;;;;;;2.94;100.00;101207.52;105368;1256;74346;-53
2023/04/17 01:20:12;;;;;;;4.00;2.50;;;;;;;2.89;100.00;101206.80;105521;1256;68790;-55
2023/04/17 01:22:41;;;;;;;7.70;2.80;;;;;;;2.84;100.00;101205.98;105297;1256;74461;-54
2023/04/17 01:25:10;;;;;;;5.80;3.00;;;;;;;2.81;100.00;101206.70;105255;1264;60422;-55
2023/04/17 01:27:39;;;;;;;5.50;2.60;;;;;;;2.78;100.00;101206.41;105252;1257;61970;-53
2023/04/17 01:30:08;;;;;;;5.00;2.60;;;;;;;2.76;100.00;101207.95;105201;1261;75181;-57
2023/04/17 01:32:45;;;;;;;8.30;2.80;;;;;;;2.75;100.00;101204.55;105245;1263;67672;-54
2023/04/17 01:35:13;;;;;;;6.60;2.40;;;;;;;2.73;100.00;101203.20;105302;1256;72529;-54
2023/04/17 01:37:42;;;;;;;6.90;2.70;;;;;;;2.72;100.00;101202.59;105298;1257;61325;-54
2023/04/17 01:40:11;;;;;;;6.90;2.40;;;;;;;2.72;100.00;101202.92;105302;1261;61000;-54
2023/04/17 01:42:40;;;;;;;5.60;2.70;;;;;;;2.70;100.00;101200.64;105455;1259;73791;-55
2023/04/17 01:45:09;;;;;;;5.80;3.10;;;;;;;2.67;100.00;101201.64;105336;1260;67334;-54
2023/04/17 01:47:38;;;;;;;7.70;2.90;;;;;;;2.66;100.00;101204.17;105280;1256;74171;-55
2023/04/17 01:50:10;;;;;;;5.90;2.60;;;;;;;2.64;100.00;101208.76;105444;1258;61523;-55
2023/04/17 01:52:38;;;;;;;5.30;2.90;;;;;;;2.63;100.00;101208.68;105345;1257;61678;-56
2023/04/17 01:55:08;;;;;;;7.80;3.40;;;;;;;2.61;100.00;101208.47;105328;1259;74341;-54
2023/04/17 01:57:37;;;;;;;6.80;3.10;;;;;;;2.60;100.00;101207.54;105290;1257;69519;-56
2023/04/17 02:00:08;;;;;;;7.30;3.40;;;;;;;2.58;100.00;101207.64;105373;1256;72074;-56
2023/04/17 02:02:42;;;;;;;7.50;2.80;;;;;;;2.58;100.00;101209.24;105351;1256;62586;-55
2023/04/17 02:05:11;;;;;;;5.20;3.30;;;;;;;2.55;100.00;101208.55;105493;1260;60788;-54
2023/04/17 02:07:40;;;;;;;5.90;2.70;;;;;;;2.55;100.00;101208.71;105358;1258;73433;-55
2023/04/17 02:10:09;;;;;;;6.40;3.20;;;;;;;2.55;100.00;101202.89;105436;1256;68171;-55
2023/04/17 02:12:37;;;;;;;5.80;3.10;;;;;;;2.54;100.00;101203.98;105340;1256;73274;-54
2023/04/17 02:15:06;;;;;;;6.90;2.70;;;;;;;2.54;100.00;101202.28;105392;1256;62245;-54
2023/04/17 02:17:36;;;;;;;6.60;2.70;;;;;;;2.55;100.00;101204.41;105370;1263;61906;-54
2023/04/17 02:20:07;;;;;;;5.00;2.70;;;;;;;2.57;100.00;101202.39;105193;1263;75397;-54
2023/04/17 02:22:36;;;;;;;6.00;2.80;;;;;;;2.58;100.00;101202.16;105348;1262;68994;-54
2023/04/17 02:25:05;;;;;;;5.70;2.90;;;;;;;2.58;100.00;101200.60;105382;1261;74354;-54
2023/04/17 02:27:34;;;;;;;4.90;2.60;;;;;;;2.60;100.00;101203.36;105350;1262;60545;-55
2023/04/17 02:30:03;;;;;;;7.00;3.20;;;;;;;2.64;100.00;101208.92;105424;1257;61643;-55
2023/04/17 02:32:33;;;;;;;5.40;3.20;;;;;;;2.66;100.00;101207.59;105316;1260;75637;-54
2023/04/17 02:35:02;;;;;;;5.00;2.90;;;;;;;2.64;100.00;101201.02;105330;1256;68063;-58
2023/04/17 02:37:32;;;;;;;6.40;2.80;;;;;;;2.62;100.00;101205.84;105502;1258;73826;-54
2023/04/17 02:40:01;;;;;;;6.90;3.10;;;;;;;2.57;100.00;101205.29;105589;1256;63153;-57
2023/04/17 02:42:30;;;;;;;7.90;3.50;;;;;;;2.58;100.00;101206.27;105196;1264;60815;-54
2023/04/17 02:44:59;;;;;;;6.30;3.60;;;;;;;2.66;100.00;101208.61;105436;1256;74441;-56
2023/04/17 02:47:27;;;;;;;5.70;2.90;;;;;;;2.75;100.00;101211.23;105009;1261;68060;-55
2023/04/17 02:49:58;;;;;;;5.60;3.00;;;;;;;2.86;100.00;101209.27;105519;1259;74682;-56
2023/04/17 02:52:28;;;;;;;6.50;3.60;;;;;;;3.02;100.00;101209.47;105413;1257;60531;-52
2023/04/17 02:54:57;;;;;;;7.40;3.40;;;;;;;3.19;100.00;101209.13;105259;1263;60880;-53
2023/04/17 02:57:26;;;;;;;5.50;2.70;;;;;;;3.30;100.00;101207.30;105346;1257;75239;-53
2023/04/17 02:59:55;;;;;;;7.20;3.10;;;;;;;3.33;100.00;101208.12;105297;1256;68729;-53
2023/04/17 03:02:23;;;;;;;6.00;3.30;;;;;;;3.38;100.00;101210.11;105172;1259;73946;-53
2023/04/17 03:04:52;;;;;;;5.50;2.90;;;;;;;3.50;100.00;101214.23;105437;1262;61058;-55
2023/04/17 03:07:22;;;;;;;5.70;2.50;;;;;;;3.63;100.00;101213.62;105266;1257;61987;-53
2023/04/17 03:09:52;;;;;;;4.20;2.10;;;;;;;3.71;100.00;101217.80;105222;1259;75420;-54
2023/04/17 03:12:21;;;;;;;4.80;2.10;;;;;;;3.78;100.00;101213.18;105484;1257;68397;-54
2023/04/17 03:14:51;;;;;;;7.70;2.60;;;;;;;3.85;100.00;101215.02;105577;1256;73671;-54
2023/04/17 03:17:19;;;;;;;5.50;2.50;;;;;;;3.97;100.00;101213.48;105370;1262;60544;-53
2023/04/17 03:19:48;;;;;;;5.70;2.50;;;;;;;4.15;100.00;101219.17;105387;1259;61828;-54
2023/04/17 03:22:17;;;;;;;6.40;2.90;;;;;;;4.41;100.00;101223.48;105493;1256;74301;-53
2023/04/17 03:24:46;;;;;;;6.90;2.70;;;;;;;4.71;100.00;101217.17;105371;1256;69280;-53
2023/04/17 03:27:15;;;;;;;6.10;2.80;;;;;;;5.08;100.00;101221.99;105206;1256;74322;-53
2023/04/17 03:29:44;;;;;;;6.00;2.20;;;;;;;5.54;100.00;101217.31;105413;1258;60889;-56
2023/04/17 03:32:13;;;;;;;6.20;2.30;;;;;;;6.06;100.00;101218.23;105505;1256;60878;-56
2023/04/17 03:34:42;;;;;;;4.40;2.00;;;;;;;6.51;100.00;101221.12;105372;1260;74354;-59
2023/04/17 03:37:11;;;;;;;6.10;3.20;;;;;;;6.91;100.00;101219.59;105292;1260;68739;-55
2023/04/17 03:39:40;;;;;;;4.40;2.40;;;;;;;7.30;100.00;101215.54;105633;1256;74026;-59
2023/04/17 03:42:13;;;;;;;5.40;2.40;;;;;;;7.62;100.00;101217.77;105327;1257;60741;-54
2023/04/17 03:44:41;;;;;;;6.20;2.50;;;;;;;7.93;100.00;101217.47;105643;1260;62097;-54
2023/04/17 03:47:11;;;;;;;5.70;2.30;;;;;;;8.16;100.00;101214.83;105382;1263;75385;-53
2023/04/17 03:49:40;;;;;;;4.60;2.30;;;;;;;8.35;99.73;101215.52;105469;1265;67553;-57
2023/04/17 03:52:10;;;;;;;6.10;2.40;;;;;;;8.63;96.84;101214.80;105354;1260;72385;-54
2023/04/17 03:54:39;;;;;;;5.60;2.10;;;;;;;8.93;90.72;101217.75;105626;1256;60462;-55
2023/04/17 03:57:07;;;;;;;4.20;2.30;;;;;;;9.22;84.24;101221.88;104901;1259;61658;-53
2023/04/17 03:59:36;;;;;;;5.30;2.10;;;;;;;9.40;78.22;101221.70;105541;1261;74165;-55
2023/04/17 04:02:05;;;;;;;4.60;1.70;;;;;;;9.59;73.97;101225.33;105352;1262;68633;-54
2023/04/17 04:04:35;;;;;;;5.40;2.10;;;;;;;9.78;69.73;101228.60;105181;1262;73596;-56
2023/04/17 04:07:10;;;;;;;3.90;2.20;;;;;;;9.93;67.16;101225.73;105099;1265;60504;-54
2023/04/17 04:09:39;;;;;;;3.90;2.10;;;;;;;10.14;65.23;101223.43;105410;1257;62019;-54
2023/04/17 04:12:08;;;;;;;4.00;2.10;;;;;;;10.35;63.71;101223.07;105441;1263;75328;-54
2023/04/17 04:14:40;;;;;;;5.70;2.30;;;;;;;10.61;59.92;101222.77;105371;1262;67689;-57
2023/04/17 04:17:10;;;;;;;4.30;2.10;;;;;;;10.84;57.44;101225.80;105064;1256;72951;-54
2023/04/17 04:19:39;;;;;;;5.40;2.50;;;;;;;11.03;55.41;101225.55;105306;1263;60744;-54
2023/04/17 04:22:08;;;;;;;4.60;1.90;;;;;;;11.22;54.08;101229.39;105373;1262;60866;-54
2023/04/17 04:24:41;;;;;;;3.90;2.30;;;;;;;11.44;52.45;101227.22;105543;1259;75610;-55
2023/04/17 04:27:11;;;;;;;6.10;2.40;;;;;;;11.57;50.27;101226.06;105500;1260;68271;-54
2023/04/17 04:29:47;;;;;;;5.20;2.00;;;;;;;11.69;49.77;101232.34;105302;1262;74690;-54
2023/04/17 04:32:17;;;;;;;5.60;2.10;;;;;;;11.79;48.58;101229.55;105084;1264;61896;-53
2023/04/17 04:34:47;;;;;;;5.50;2.20;;;;;;;11.88;48.95;101228.90;105319;1259;61230;-57
2023/04/17 04:37:20;;;;;;;5.20;2.40;;;;;;;12.07;48.08;101228.59;105527;1260;75593;-54
2023/04/17 04:39:52;;;;;;;4.10;2.00;;;;;;;12.25;46.82;101225.98;105248;1257;68611;-54
2023/04/17 04:42:22;;;;;;;;;;;;;;;12.43;46.49;101223.58;105320;1263;74616;-58
2023/04/17 04:45:20;;;;;;;4.60;2.20;;;;;;;12.73;45.80;101224.34;105564;1262;62121;-55
2023/04/17 04:47:49;;;;;;;4.50;2.20;;;;;;;13.00;44.21;101224.66;105335;1258;62161;-55
2023/04/17 04:50:18;;;;;;;4.60;2.10;;;;;;;13.14;43.23;101224.96;105463;1259;74891;-58
2023/04/17 04:52:47;;;;;;;7.40;2.00;;;;;;;13.20;42.91;101227.02;105546;1262;69052;-54
2023/04/17 04:55:26;;;;;;;3.50;2.00;;;;;;;13.28;42.49;101229.78;105469;1260;73594;-55
2023/04/17 04:57:56;;;;;;;3.80;1.80;;;;;;;13.35;42.26;101229.89;105799;1261;60977;-55
2023/04/17 05:00:25;;;;;;;4.70;1.90;;;;;;;13.42;41.66;101222.07;105339;1257;60474;-54
2023/04/17 05:02:57;;;;;;;5.30;2.40;;;;;;;13.43;41.39;101225.95;105427;1258;74422;-54
2023/04/17 05:05:26;;;;;;;3.20;1.60;;;;;;;13.59;41.59;101231.14;105520;1260;67923;-54
2023/04/17 05:07:55;;;;;;;4.20;2.10;;;;;;;13.77;40.69;101228.83;105576;1260;74680;-55
2023/04/17 05:10:26;;;;;;;3.40;1.60;;;;;;;13.90;40.36;101226.63;105283;1256;62170;-54
2023/04/17 05:12:58;;;;;;;4.00;2.20;;;;;;;14.07;40.30;101234.73;105478;1260;61880;-55
2023/04/17 05:15:27;;;;;;;4.40;2.10;;;;;;;14.30;39.50;101229.33;105517;1256;74551;-54
2023/04/17 05:17:56;;;;;;;4.30;2.00;;;;;;;14.35;38.97;101229.95;105649;1262;67766;-55
2023/04/17 05:20:25;;;;;;;4.70;1.70;;;;;;;14.32;38.85;101226.65;105464;1262;72401;-56
2023/04/17 05:22:57;;;;;;;5.00;1.80;;;;;;;14.45;39.02;101232.89;105294;1263;60785;-56
2023/04/17 05:25:25;;;;;;;4.80;1.80;;;;;;;14.57;38.81;101233.06;105355;1262;60835;-56
2023/04/17 05:27:55;;;;;;;4.50;2.10;;;;;;;14.61;38.40;101233.00;105584;1262;75323;-56
2023/04/17 05:30:24;;;;;;;4.80;1.70;;;;;;;14.69;38.54;101240.48;105370;1261;68155;-55
2023/04/17 05:33:24;;;;;;;6.30;1.90;;;;;;;14.80;38.57;101242.51;105201;1263;74702;-55
2023/04/17 05:35:55;;;;;;;3.90;1.50;;;;;;;14.82;37.94;101240.09;105226;1257;61639;-56
2023/04/17 05:38:24;;;;;;;6.10;1.80;;;;;;;14.78;38.04;101242.98;105381;1256;60943;-55
2023/04/17 05:40:53;;;;;;;3.10;1.60;;;;;;;14.89;37.76;101243.77;105508;1258;75529;-55
2023/04/17 05:43:21;;;;;;;4.80;1.70;;;;;;;14.97;35.36;101242.31;105760;1260;68719;-58
2023/04/17 05:45:52;;;;;;;3.30;1.10;;;;;;;14.93;34.89;101242.79;105230;1264;72779;-55
2023/04/17 05:48:20;;;;;;;3.40;1.60;;;;;;;14.92;34.29;101245.02;105366;1262;60810;-55
2023/04/17 05:50:49;;;;;;;2.90;1.30;;;;;;;14.85;34.34;101240.98;105504;1262;60645;-56
2023/04/17 05:53:18;;;;;;;3.60;1.30;;;;;;;14.88;34.74;101244.16;105569;1257;74669;-56
2023/04/17 05:55:50;;;;;;;3.80;1.40;;;;;;;14.95;34.46;101247.24;105251;1257;68678;-55
2023/04/17 05:58:19;;;;;;;2.90;1.40;;;;;;;14.86;33.59;101250.11;105523;1262;73970;-54
2023/04/17 06:00:54;;;;;;;3.20;1.40;;;;;;;14.66;33.52;101242.56;105287;1263;61977;-54
2023/04/17 06:03:23;;;;;;;3.60;1.20;;;;;;;14.62;33.46;101237.78;105362;1257;61796;-57
2023/04/17 06:05:57;;;;;;;3.50;1.30;;;;;;;14.60;32.93;101237.25;104900;1263;73637;-55
2023/04/17 06:08:26;;;;;;;4.20;1.50;;;;;;;14.60;33.12;101241.88;105420;1257;68661;-59
2023/04/17 06:10:55;;;;;;;2.60;1.20;;;;;;;14.73;32.26;101239.48;105265;1262;73355;-55
2023/04/17 06:13:24;;;;;;;6.80;2.50;;;;;;;14.84;32.14;101240.56;105407;1256;62036;-55
2023/04/17 06:15:53;;;;;;;5.60;2.40;;;;;;;14.95;32.37;101245.68;105254;1256;60885;-56
2023/04/17 06:18:22;;;;;;;4.50;1.30;;;;;;;15.08;31.22;101237.98;105660;1260;75740;-59
2023/04/17 06:20:50;;;;;;;3.80;1.50;;;;;;;15.11;31.51;101234.31;105423;1262;67427;-54
2023/04/17 06:23:20;;;;;;;3.40;1.70;;;;;;;15.32;31.64;101239.25;105628;1262;74189;-56
2023/04/17 06:25:49;;;;;;;3.00;1.30;;;;;;;15.58;31.05;101233.99;105512;1262;61191;-56
2023/04/17 06:28:18;;;;;;;3.90;1.60;;;;;;;15.65;29.78;101239.30;105453;1260;61344;-56
2023/04/17 06:30:47;;;;;;;3.20;1.40;;;;;;;15.50;30.19;101242.75;105319;1263;74863;-56
2023/04/17 06:33:16;;;;;;;3.30;1.40;;;;;;;15.40;30.13;101237.05;105608;1262;68937;-55
2023/04/17 06:35:45;;;;;;;3.70;1.30;;;;;;;15.38;30.57;101232.54;105330;1259;72594;-55
2023/04/17 06:38:27;;;;;;;2.40;1.00;;;;;;;15.56;30.39;101228.71;105404;1257;61058;-59
2023/04/17 06:40:56;;;;;;;3.30;1.10;;;;;;;15.77;29.59;101225.17;105515;1259;60971;-55
2023/04/17 06:43:25;;;;;;;6.20;1.60;;;;;;;16.00;29.93;101235.28;105361;1262;75339;-56
2023/04/17 06:45:54;;;;;;;5.00;1.40;;;;;;;16.13;29.07;101231.30;105202;1263;67733;-54
2023/04/17 06:48:22;;;;;;;3.20;1.20;;;;;;;16.19;28.07;101228.25;105367;1262;74156;-56
2023/04/17 06:50:51;;;;;;;4.60;1.50;;;;;;;16.17;26.94;101235.85;105124;1262;60942;-56
2023/04/17 06:53:20;;;;;;;4.30;1.50;;;;;;;16.11;27.15;101239.88;105345;1261;60697;-56
2023/04/17 06:55:48;;;;;;;2.70;1.20;;;;;;;15.88;26.44;101233.52;105334;1262;75402;-56
2023/04/17 06:58:17;;;;;;;2.90;1.30;;;;;;;15.66;25.92;101231.44;105542;1258;69200;-55
2023/04/17 07:00:45;;;;;;;4.80;1.20;;;;;;;15.55;26.37;101232.33;105352;1257;73929;-55
2023/04/17 07:03:15;;;;;;;9.60;1.10;;;;;;;15.60;26.27;101233.59;105394;1258;62152;-54
2023/04/17 07:05:44;;;;;;;3.70;1.10;;;;;;;15.59;26.15;101227.38;105554;1261;61894;-56
2023/04/17 07:08:14;;;;;;;4.60;1.40;;;;;;;15.61;26.42;101228.91;105554;1262;75172;-56
2023/04/17 07:10:43;;;;;;;4.00;1.30;;;;;;;15.65;25.94;101224.38;105483;1261;67742;-58
2023/04/17 07:13:12;;;;;;;3.00;1.10;;;;;;;15.62;26.34;101220.55;105420;1257;74307;-56
2023/04/17 07:15:40;;;;;;;2.50;1.10;;;;;;;15.61;25.63;101224.95;105463;1257;61819;-56
2023/04/17 07:18:09;;;;;;;2.80;1.40;;;;;;;15.49;25.95;101231.83;105427;1262;61783;-56
2023/04/17 07:20:38;;;;;;;3.30;0.80;;;;;;;15.41;26.08;101219.84;105523;1261;74392;-57
2023/04/17 07:23:07;;;;;;;3.40;1.10;;;;;;;15.46;26.33;101208.77;105486;1262;68650;-57
2023/04/17 07:25:35;;;;;;;6.00;1.50;;;;;;;15.57;26.66;101209.45;105433;1264;73106;-56
2023/04/17 07:28:04;;;;;;;2.90;1.10;;;;;;;15.68;26.93;101198.74;105369;1262;60418;-55
2023/04/17 07:30:33;;;;;;;3.00;1.10;;;;;;;15.69;26.70;101198.02;105417;1262;61916;-57
2023/04/17 07:33:01;;;;;;;3.20;1.40;;;;;;;15.55;27.25;101192.70;105407;1262;75245;-56
2023/04/17 07:35:31;;;;;;;5.30;1.40;;;;;;;15.52;27.37;101197.30;105421;1261;68613;-57
2023/04/17 07:38:02;;;;;;;2.90;1.20;;;;;;;15.53;26.74;101191.59;105373;1257;74023;-58
2023/04/17 07:40:31;;;;;;;3.50;1.60;;;;;;;15.52;26.99;101187.98;105677;1258;60967;-59
2023/04/17 07:42:59;;;;;;;4.50;1.60;;;;;;;15.52;26.70;101189.03;105338;1261;61171;-56
2023/04/17 07:45:28;;;;;;;3.00;1.20;;;;;;;15.56;26.77;101185.05;105341;1261;75219;-55
2023/04/17 07:47:56;;;;;;;4.40;1.10;;;;;;;15.65;27.39;101180.40;105390;1261;67641;-55
2023/04/17 07:50:25;;;;;;;3.10;1.40;;;;;;;15.89;28.10;101178.95;105463;1262;74403;-56
2023/04/17 07:52:54;;;;;;;4.40;1.30;;;;;;;16.12;27.74;101167.96;105566;1270;62087;-57
2023/04/17 07:55:22;;;;;;;3.80;1.50;;;;;;;16.24;27.50;101170.39;105418;1261;61839;-57
2023/04/17 07:57:51;;;;;;;3.80;1.30;;;;;;;16.40;27.87;101166.50;105441;1261;74506;-56
2023/04/17 08:00:20;;;;;;;6.00;2.70;;;;;;;16.63;27.67;101161.82;105328;1261;67935;-56
2023/04/17 08:02:49;;;;;;;3.40;1.60;;;;;;;16.88;26.46;101165.51;105922;1262;74432;-59
2023/04/17 08:05:18;;;;;;;3.80;1.00;;;;;;;16.94;25.64;101157.17;105419;1270;61182;-55
2023/04/17 08:07:47;;;;;;;3.30;1.20;;;;;;;16.84;25.31;101159.88;105436;1263;61863;-56
2023/04/17 08:10:15;;;;;;;3.50;1.30;;;;;;;16.66;25.54;101158.27;105554;1260;75380;-57
2023/04/17 08:12:44;;;;;;;4.10;1.30;;;;;;;16.58;25.78;101156.58;105481;1260;67631;-56
2023/04/17 08:15:13;;;;;;;5.50;2.50;;;;;;;16.62;25.99;101160.92;105345;1260;72587;-56
2023/04/17 08:17:42;;;;;;;5.60;1.70;;;;;;;16.77;25.50;101147.80;105357;1263;61749;-56
2023/04/17 08:20:10;;;;;;;2.50;1.10;;;;;;;16.89;25.30;101149.23;105476;1261;60623;-58
2023/04/17 08:22:40;;;;;;;3.30;1.20;;;;;;;16.87;25.39;101149.44;105617;1261;74590;-56
2023/04/17 08:25:09;;;;;;;5.30;1.30;;;;;;;16.92;25.72;101156.84;105427;1261;66959;-55
2023/04/17 08:27:39;;;;;;;3.00;1.10;;;;;;;16.96;25.84;101151.41;105346;1261;73194;-56
2023/04/17 08:30:10;;;;;;;8.00;1.70;;;;;;;16.99;25.98;101149.06;105501;1257;60985;-56
2023/04/17 08:32:45;;;;;;;3.10;1.30;;;;;;;16.98;25.41;101138.27;105475;1260;60630;-57
2023/04/17 08:35:14;;;;;;;5.00;1.40;;;;;;;16.95;25.42;101144.69;105604;1261;74104;-56
2023/04/17 08:37:45;;;;;;;3.80;1.20;;;;;;;16.87;25.70;101135.08;105512;1261;67979;-57
2023/04/17 08:40:15;;;;;;;3.00;1.10;;;;;;;16.79;25.11;101130.75;105477;1262;73213;-56
2023/04/17 08:42:46;;;;;;;2.10;1.20;;;;;;;16.66;25.61;101136.02;105525;1262;60550;-56
2023/04/17 08:45:16;;;;;;;5.20;1.60;;;;;;;16.57;26.02;101129.86;105517;1258;62015;-55
2023/04/17 08:47:44;;;;;;;3.50;1.60;;;;;;;16.58;25.86;101127.63;105555;1257;73719;-56
2023/04/17 08:50:15;;;;;;;2.80;1.70;;;;;;;16.60;25.59;101133.48;105771;1258;68631;-58
2023/04/17 08:52:48;;;;;;;3.80;1.90;;;;;;;16.59;25.59;101125.73;105513;1263;73398;-55
2023/04/17 08:55:21;;;;;;;3.60;1.60;;;;;;;16.62;26.47;101128.29;105567;1260;61894;-55
2023/04/17 08:58:03;;;;;;;4.10;1.40;;;;;;;16.82;25.94;101140.84;105673;1260;61694;-55
2023/04/17 09:00:32;;;;;;;3.60;1.60;;;;;;;16.89;25.30;101130.95;105463;1258;74096;-55
2023/04/17 09:03:03;;;;;;;3.40;1.30;;;;;;;16.85;25.66;101128.02;105447;1260;67652;-56
2023/04/17 09:05:33;;;;;;;5.20;1.50;;;;;;;16.82;25.81;101124.02;105565;1270;74218;-57
2023/04/17 09:08:22;;;;;;;4.50;1.90;;;;;;;16.86;26.16;101112.96;105719;1260;61940;-59
2023/04/17 09:10:52;;;;;;;6.00;1.30;;;;;;;17.00;26.06;101109.43;105387;1261;62140;-57
2023/04/17 09:13:23;;;;;;;2.60;1.30;;;;;;;17.04;25.63;101109.59;105291;1258;75388;-56
2023/04/17 09:16:06;;;;;;;4.50;1.40;;;;;;;16.87;25.57;101114.02;105391;1261;68039;-56
2023/04/17 09:18:35;;;;;;;3.70;1.40;;;;;;;16.61;26.02;101098.08;105512;1261;73972;-57
2023/04/17 09:21:05;;;;;;;5.20;2.20;;;;;;;16.51;26.01;101093.73;105395;1260;60627;-57
2023/04/17 09:23:58;;;;;;;4.90;2.00;;;;;;;16.51;26.47;101089.69;105381;1262;61970;-58
2023/04/17 09:26:29;;;;;;;5.40;1.90;;;;;;;16.67;27.39;101081.50;105423;1262;75454;-55
2023/04/17 09:29:10;;;;;;;5.80;1.70;;;;;;;16.94;27.53;101077.18;105414;1263;67657;-58
2023/04/17 09:31:40;;;;;;;;;;;;;;;17.15;27.00;101078.32;105385;1261;74228;-57
2023/04/17 09:34:14;;;;;;;3.70;1.40;;;;;;;17.07;26.31;101083.52;105286;1261;62282;-57
2023/04/17 09:36:42;;;;;;;3.80;1.50;;;;;;;16.83;26.45;101077.77;105294;1257;61952;-59
2023/04/17 09:39:19;;;;;;;4.60;2.20;;;;;;;16.75;27.64;101082.83;105440;1260;75099;-57
2023/04/17 09:41:48;;;;;;;4.10;1.60;;;;;;;16.84;27.35;101072.05;105172;1260;67712;-56
2023/04/17 09:44:27;;;;;;;4.20;1.60;;;;;;;16.91;27.26;101070.30;105488;1264;73007;-57
2023/04/17 09:46:56;;;;;;;5.40;1.90;;;;;;;17.02;26.92;101065.21;105295;1262;61218;-56
2023/04/17 09:49:27;;;;;;;4.80;1.50;;;;;;;17.18;27.21;101062.11;105324;1257;61905;-55
2023/04/17 09:51:56;;;;;;;2.10;0.90;;;;;;;17.27;25.89;101077.85;105535;1257;75434;-59
2023/04/17 09:54:25;;;;;;;4.80;1.30;;;;;;;17.16;25.23;101063.94;105546;1260;68634;-56
2023/04/17 09:56:54;;;;;;;4.10;1.60;;;;;;;17.07;25.50;101056.58;105315;1257;73993;-55
2023/04/17 09:59:23;;;;;;;3.80;1.50;;;;;;;17.02;25.40;101058.09;105277;1256;61093;-56
2023/04/17 10:01:55;;;;;;;7.20;1.50;;;;;;;16.93;25.70;101048.17;105578;1257;60740;-57
2023/04/17 10:04:23;;;;;;;4.00;1.60;;;;;;;17.01;26.28;101043.17;105707;1257;73787;-57
2023/04/17 10:06:52;;;;;;;3.90;1.90;;;;;;;17.11;26.10;101039.79;105373;1260;69005;-57
2023/04/17 10:09:21;;;;;;;4.90;1.50;;;;;;;17.22;26.64;101031.62;105423;1257;73748;-55
2023/04/17 10:11:50;;;;;;;4.00;1.50;;;;;;;17.43;26.68;101032.70;105391;1259;60582;-55
2023/04/17 10:14:31;;;;;;;4.60;1.50;;;;;;;17.69;25.83;101039.70;105457;1259;60820;-55
2023/04/17 10:17:00;;;;;;;4.40;1.50;;;;;;;17.88;25.99;101035.52;105351;1260;75424;-55
2023/04/17 10:19:30;;;;;;;3.60;1.60;;;;;;;18.06;25.62;101028.63;105148;1257;68626;-58
2023/04/17 10:22:14;;;;;;;5.70;1.70;;;;;;;18.20;25.48;101039.83;105457;1261;74099;-56
2023/04/17 10:25:11;;;;;;;3.10;1.20;;;;;;;18.28;24.98;101021.02;105413;1257;60670;-57
2023/04/17 10:27:40;;;;;;;6.80;1.70;;;;;;;18.37;25.17;101021.30;105226;1258;61164;-57
2023/04/17 10:30:11;;;;;;;5.00;1.30;;;;;;;18.45;25.22;101020.34;105505;1260;75491;-57
2023/04/17 10:32:45;;;;;;;5.30;1.50;;;;;;;18.52;24.27;101011.20;105418;1257;68663;-57
2023/04/17 10:35:16;;;;;;;3.70;1.70;;;;;;;18.53;24.36;101021.52;105411;1258;75228;-58
2023/04/17 10:37:51;;;;;;;;;;;;;;;18.47;24.21;101009.27;105232;1257;60604;-58
2023/04/17 10:40:24;;;;;;;2.50;1.30;;;;;;;18.36;24.34;101019.36;105347;1257;61679;-57
2023/04/17 10:43:21;;;;;;;4.40;1.50;;;;;;;18.29;25.30;101010.48;105365;1260;76081;-58
2023/04/17 10:46:11;;;;;;;3.70;1.40;;;;;;;18.40;24.83;101019.77;105160;1257;68658;-56
2023/04/17 10:48:48;;;;;;;7.40;1.70;;;;;;;18.38;24.50;101016.46;105257;1257;73721;-55
2023/04/17 10:51:22;;;;;;;4.00;1.80;;;;;;;18.31;25.19;100997.03;105435;1257;61714;-55
2023/04/17 10:53:54;;;;;;;4.80;1.40;;;;;;;18.37;25.56;101008.51;105316;1258;61294;-56
2023/04/17 10:56:25;;;;;;;2.80;1.10;;;;;;;18.42;25.38;101003.34;105196;1257;74961;-56
2023/04/17 10:59:09;;;;;;;2.70;1.30;;;;;;;18.51;25.00;101002.98;105188;1258;68651;-55
2023/04/17 11:01:56;;;;;;;5.10;1.80;;;;;;;18.51;25.05;100990.84;105131;1257;73192;-55
2023/04/17 11:04:29;;;;;;;6.50;1.20;;;;;;;18.54;24.64;100995.27;105287;1258;61980;-55
2023/04/17 11:06:58;;;;;;;2.80;1.10;;;;;;;18.48;24.98;100997.11;105235;1258;60819;-58
2023/04/17 11:09:28;;;;;;;5.10;1.20;;;;;;;18.50;24.58;100996.42;105526;1256;75184;-58
2023/04/17 11:11:58;;;;;;;3.40;1.30;;;;;;;18.56;24.21;100986.42;105499;1257;67148;-57
2023/04/17 11:14:26;;;;;;;5.90;1.20;;;;;;;18.50;24.83;100984.80;105450;1257;74167;-56
2023/04/17 11:16:55;;;;;;;3.00;1.30;;;;;;;18.53;25.68;100979.45;105530;1257;61021;-56
2023/04/17 11:19:24;;;;;;;4.60;1.10;;;;;;;18.68;24.76;100997.87;105431;1260;60890;-57
2023/04/17 11:21:56;;;;;;;2.80;1.20;;;;;;;18.60;24.14;100994.34;105415;1260;75429;-56
2023/04/17 11:24:33;;;;;;;;;;;;;;;18.36;24.48;100980.50;105356;1257;68672;-55
2023/04/17 11:27:02;;;;;;;4.70;1.10;;;;;;;18.24;25.76;100971.55;105590;1261;73321;-58
2023/04/17 11:29:32;;;;;;;5.00;1.90;;;;;;;18.39;25.59;100961.59;105656;1257;60885;-57
2023/04/17 11:32:00;;;;;;;5.50;1.20;;;;;;;18.48;25.41;100966.20;105192;1257;61372;-56
2023/04/17 11:34:29;;;;;;;3.90;1.10;;;;;;;18.58;24.84;100957.62;105481;1257;74343;-57